Brandy Bar — WDF7323 — position and weather

sailwx.info

Track history (hours):
 
Tides and Currents Weather Stations Pressure Air Temp Water Temp Dewpoint Dewpoint Depression Visibility Wind Speed Wind Dir Waves Ship Positions

Brandy Bar

Owner: Brandy Bar, Tiburon, CA. More information available from US FCC via Universal Licensing System and Coast Guard Vessel Documentation Center.

Last reported at 2017-Feb-24 19:33 UTC. Time now 2017-Feb-27 20:29 UTC.
Position N 38°02' W 122°09'.

Type: Towing. MMSI: 367483310.

Date/timePositionNaut miles runAvg speedWind from/ knotsBaromVisibWave heightAir tempDewpointWater temp
2017-Feb-24 19:33N 38°02' W 122°09'8 8.3
2017-Feb-24 18:34N 38°02' W 122°19'8 8.0
2017-Feb-24 17:34N 37°57' W 122°27'2 0.2
2017-Feb-24 04:33N 37°55' W 122°28'5 5.0
2017-Feb-24 03:33N 37°51' W 122°25'2 2.3
2017-Feb-24 02:34N 37°49' W 122°25'2 2.2
2017-Feb-24 01:33N 37°51' W 122°25'8 8.0
2017-Feb-24 00:34N 37°59' W 122°26'9 8.8
2017-Feb-23 23:33N 38°03' W 122°16'  
Track history (hours):
 
Tides and Currents Weather Stations Pressure Air Temp Water Temp Dewpoint Dewpoint Depression Visibility Wind Speed Wind Dir Waves Ship Positions

Brandy Bar

Owner: Brandy Bar, Tiburon, CA. More information available from US FCC via Universal Licensing System and Coast Guard Vessel Documentation Center.

Last reported at 2017-Feb-24 19:33 UTC. Time now 2017-Feb-27 20:29 UTC.
Position N 38°02' W 122°09'.

Type: Towing. MMSI: 367483310.

Date/timePositionNaut miles runAvg speedWind from/ knotsBaromVisibWave heightAir tempDewpointWater temp
2017-Feb-24 19:33N 38°02' W 122°09'8 8.3
2017-Feb-24 18:34N 38°02' W 122°19'8 8.0
2017-Feb-24 17:34N 37°57' W 122°27'2 0.2
2017-Feb-24 04:33N 37°55' W 122°28'5 5.0
2017-Feb-24 03:33N 37°51' W 122°25'2 2.3
2017-Feb-24 02:34N 37°49' W 122°25'2 2.2
2017-Feb-24 01:33N 37°51' W 122°25'8 8.0
2017-Feb-24 00:34N 37°59' W 122°26'9 8.8
2017-Feb-23 23:33N 38°03' W 122°16'  

Dump ship's entire track history